Terminal Aerodrome Forecast
Issued by NWS Boston, MA

Home | Current Version | Previous Version | Text Only | Print | Product List | Glossary On
Versions: 1 2 3 4 5 6 7 8 9 10 11 12 13 14 15 16 17 18 19 20 21 22 23 24 25 26 27 28 29 30 31 32 33 34 35 36 37 38 39 40 41 42 43 44 45 46
000
FTUS41 KBOX 221131
TAFBDL
TAF
KBDL 221131Z 2212/2318 01006KT 2SM BR VCSH BKN003
     FM221400 02008KT P6SM VCSH OVC040
     FM221900 02009KT 4SM BR VCSH OVC060
     FM222100 02010G18KT 4SM -SHRA OVC030
     FM230100 36007KT 6SM -SHRA OVC040
     FM230500 36008KT 6SM BR VCSH OVC015
     FM231000 35007KT P6SM OVC020=

USA.gov is the U.S. government's official web portal to all federal, state and local government web resources and services.